Time;durP1;ratioP1;P1;durP2;ratioP2;P2;SDS_P1;SDS_P2;PMS_P1;PMS_P2;Temp;Humidity;BMP_temperature;BMP_pressure;BME280_temperature;BME280_humidity;BME280_pressure;Samples;Min_cycle;Max_cycle;Signal;HPM_P1;HPM_P2
2021/12/01 00:00:12;;;;;;;5.23;3.07;;;;;;;14.30;63.39;100069.47;5083541;28;20032;-64
2021/12/01 00:02:38;;;;;;;5.55;3.20;;;;;;;14.25;63.02;100047.09;5084661;28;20024;-65
2021/12/01 00:05:04;;;;;;;6.57;3.30;;;;;;;14.30;63.16;100056.41;5083747;28;20052;-66
2021/12/01 00:07:30;;;;;;;5.63;3.00;;;;;;;14.28;63.17;100041.75;5083556;28;20029;-65
2021/12/01 00:09:55;;;;;;;6.40;3.00;;;;;;;14.31;63.23;100042.44;5085078;28;20032;-66
2021/12/01 00:12:21;;;;;;;5.20;3.03;;;;;;;14.30;63.09;100032.09;5084406;28;20032;-65
2021/12/01 00:14:46;;;;;;;6.60;3.27;;;;;;;14.27;63.19;100021.78;5083281;28;20658;-66
2021/12/01 00:17:12;;;;;;;6.53;3.10;;;;;;;14.31;63.23;100015.50;5085131;28;20518;-66
2021/12/01 00:19:38;;;;;;;4.38;2.70;;;;;;;14.30;63.04;100009.44;5082733;28;20034;-66
2021/12/01 00:22:04;;;;;;;6.72;3.20;;;;;;;14.23;63.54;99989.75;5083276;28;20032;-65
2021/12/01 00:24:30;;;;;;;4.73;2.90;;;;;;;14.28;63.24;99994.75;5085582;28;20082;-66
2021/12/01 00:26:55;;;;;;;4.30;2.70;;;;;;;14.29;63.36;99975.59;5083529;28;20490;-66
2021/12/01 00:29:21;;;;;;;4.27;2.60;;;;;;;14.28;63.34;99969.53;5083966;28;20099;-66
2021/12/01 00:31:46;;;;;;;5.83;2.87;;;;;;;14.30;63.22;99966.84;5084444;28;20032;-66
2021/12/01 00:34:12;;;;;;;5.03;2.70;;;;;;;14.25;63.25;99946.16;5081476;28;20078;-65
2021/12/01 00:36:37;;;;;;;5.27;2.60;;;;;;;14.25;63.34;99940.09;5082874;28;20074;-65
2021/12/01 00:39:04;;;;;;;4.03;2.50;;;;;;;14.27;63.38;99946.94;5083154;28;20028;-65
2021/12/01 00:41:29;;;;;;;5.38;2.78;;;;;;;14.29;63.30;99932.06;5084442;28;20024;-65
2021/12/01 00:43:54;;;;;;;4.90;2.77;;;;;;;14.30;63.33;99925.06;5082982;28;20034;-65
2021/12/01 00:46:23;;;;;;;3.90;2.50;;;;;;;14.27;63.33;99922.59;5083258;28;20149;-65
2021/12/01 00:48:49;;;;;;;3.25;2.40;;;;;;;14.27;63.09;99920.84;5084505;28;20095;-66
2021/12/01 00:51:16;;;;;;;3.00;2.50;;;;;;;14.27;63.11;99910.41;5082814;28;20131;-65
2021/12/01 00:53:42;;;;;;;3.78;2.50;;;;;;;14.26;63.09;99908.72;5083125;28;20103;-66
2021/12/01 00:56:08;;;;;;;3.20;2.40;;;;;;;14.27;63.26;99907.81;5081690;28;20025;-65
2021/12/01 00:58:33;;;;;;;3.53;2.30;;;;;;;14.27;63.17;99910.41;5081568;28;20580;-66
2021/12/01 01:01:00;;;;;;;4.87;2.70;;;;;;;14.28;63.32;99899.06;5082694;28;20075;-65
2021/12/01 01:03:27;;;;;;;3.30;2.30;;;;;;;14.28;63.42;99895.59;5083921;28;20115;-66
2021/12/01 01:05:52;;;;;;;4.82;3.65;;;;;;;14.30;63.36;99902.41;5082922;28;20124;-66
2021/12/01 01:08:18;;;;;;;4.37;2.40;;;;;;;14.30;63.32;99897.19;5083280;28;20081;-66
2021/12/01 01:18:44;;;;;;;4.47;2.35;;;;;;;14.28;63.33;99869.50;5073549;28;20509;-66
2021/12/01 01:21:10;;;;;;;4.03;2.30;;;;;;;14.27;63.31;99863.44;5073360;28;20119;-66
2021/12/01 01:23:36;;;;;;;;;;;;;;;14.37;63.01;99861.22;5073442;28;20097;-66
2021/12/01 01:26:06;;;;;;;2.92;2.15;;;;;;;14.28;63.18;99848.59;5072843;28;20362;-64
2021/12/01 01:28:31;;;;;;;3.25;2.20;;;;;;;14.28;63.25;99861.66;5073403;28;20028;-65
2021/12/01 01:30:58;;;;;;;2.73;2.20;;;;;;;14.24;63.36;99845.31;5073285;28;20372;-66
2021/12/01 01:33:23;;;;;;;3.55;2.10;;;;;;;14.25;63.40;99827.88;5072917;28;20041;-66
2021/12/01 01:35:49;;;;;;;2.93;2.10;;;;;;;14.28;63.48;99846.88;5073221;28;20073;-66
2021/12/01 01:38:14;;;;;;;3.90;2.20;;;;;;;14.29;63.44;99832.91;5072801;28;20039;-66
2021/12/01 01:40:40;;;;;;;2.20;2.00;;;;;;;14.23;63.23;99825.34;5073123;28;20028;-64
2021/12/01 01:43:06;;;;;;;2.73;2.10;;;;;;;14.25;63.43;99812.22;5072689;28;20056;-64
2021/12/01 01:45:32;;;;;;;3.07;2.10;;;;;;;14.29;63.45;99825.06;5073009;28;20036;-63
2021/12/01 01:48:06;;;;;;;2.35;2.10;;;;;;;14.29;63.43;99826.81;5072950;28;20035;-63
2021/12/01 01:50:37;;;;;;;2.45;1.90;;;;;;;14.28;63.34;99818.16;5073138;28;20036;-65
2021/12/01 01:53:14;;;;;;;2.63;2.10;;;;;;;14.21;63.46;99807.16;5072976;28;20111;-65
2021/12/01 01:55:42;;;;;;;2.55;1.90;;;;;;;14.24;63.53;99807.94;5072791;28;20051;-65
2021/12/01 01:58:08;;;;;;;2.75;2.00;;;;;;;14.28;63.24;99806.84;5071765;28;20344;-66
2021/12/01 02:00:43;;;;;;;2.20;2.00;;;;;;;14.29;63.30;99798.09;5072899;28;20036;-65
2021/12/01 02:03:12;;;;;;;2.45;1.90;;;;;;;14.24;63.15;99784.44;5072872;28;20115;-65
2021/12/01 02:05:38;;;;;;;2.03;1.83;;;;;;;14.27;63.35;99779.06;5073034;28;20060;-65
2021/12/01 02:08:03;;;;;;;2.20;2.00;;;;;;;14.25;63.25;99770.44;5072178;28;20033;-65
2021/12/01 02:10:30;;;;;;;2.40;2.00;;;;;;;14.29;63.47;99785.06;5072565;28;20098;-66
2021/12/01 02:12:56;;;;;;;2.40;2.20;;;;;;;14.24;63.59;99750.53;5073214;28;20459;-66
2021/12/01 02:15:21;;;;;;;2.33;1.88;;;;;;;14.23;63.69;99743.63;5072876;28;20033;-66
2021/12/01 02:17:46;;;;;;;2.20;2.00;;;;;;;14.25;63.51;99746.97;5072547;28;20020;-65
2021/12/01 02:20:20;;;;;;;1.90;1.80;;;;;;;14.24;63.33;99747.91;5072851;28;20033;-66
2021/12/01 02:22:46;;;;;;;2.03;1.83;;;;;;;14.25;63.25;99752.19;5072403;28;20059;-65
2021/12/01 02:25:12;;;;;;;2.00;1.80;;;;;;;14.19;63.42;99728.09;5072827;28;20055;-65
2021/12/01 02:27:37;;;;;;;2.67;2.00;;;;;;;14.24;63.62;99725.25;5074872;28;20032;-67
2021/12/01 02:30:03;;;;;;;2.83;1.90;;;;;;;14.23;63.42;99710.53;5076245;28;20033;-64
2021/12/01 02:32:29;;;;;;;4.38;1.80;;;;;;;14.18;63.75;99700.31;5074541;28;20112;-64
2021/12/01 02:34:54;;;;;;;2.20;1.93;;;;;;;14.23;63.59;99704.47;5075639;28;20032;-66
2021/12/01 02:37:21;;;;;;;2.93;1.90;;;;;;;14.24;63.43;99707.00;5076048;28;20029;-65
2021/12/01 02:39:50;;;;;;;2.50;1.80;;;;;;;14.25;63.50;99690.41;5075902;28;20035;-66
2021/12/01 02:42:19;;;;;;;2.85;1.80;;;;;;;14.25;63.50;99697.38;5076374;28;20044;-66
2021/12/01 02:44:44;;;;;;;2.28;1.92;;;;;;;14.20;63.52;99680.22;5076383;28;20037;-66
2021/12/01 02:47:09;;;;;;;1.80;1.70;;;;;;;14.23;63.53;99665.31;5074696;28;20383;-65
2021/12/01 02:49:35;;;;;;;2.00;1.70;;;;;;;14.21;63.58;99668.00;5074656;28;20024;-65
2021/12/01 02:52:01;;;;;;;1.80;1.70;;;;;;;14.24;63.65;99654.81;5073936;28;20029;-66
2021/12/01 02:54:27;;;;;;;2.08;1.60;;;;;;;14.20;63.52;99655.88;5074889;28;20613;-65
2021/12/01 02:56:53;;;;;;;2.30;1.70;;;;;;;14.23;63.57;99655.72;5074323;28;20033;-66
2021/12/01 02:59:20;;;;;;;1.67;1.58;;;;;;;14.19;63.52;99646.34;5074405;28;20115;-64
2021/12/01 03:01:45;;;;;;;1.67;1.58;;;;;;;14.23;63.74;99652.28;5075440;28;20028;-65
2021/12/01 03:04:13;;;;;;;1.77;1.63;;;;;;;14.21;63.35;99640.16;5075741;28;20055;-67
2021/12/01 03:06:40;;;;;;;1.98;1.75;;;;;;;14.13;63.70;99620.56;5074320;28;20398;-66
2021/12/01 03:09:07;;;;;;;1.65;1.55;;;;;;;14.19;63.61;99630.69;5075775;28;20031;-66
2021/12/01 03:11:34;;;;;;;2.72;1.58;;;;;;;14.21;63.69;99624.50;5075788;28;20030;-66
2021/12/01 03:13:59;;;;;;;1.80;1.60;;;;;;;14.20;63.48;99617.59;5075970;28;20024;-66
2021/12/01 03:16:25;;;;;;;2.23;1.70;;;;;;;14.20;63.67;99608.91;5075450;28;20467;-64
2021/12/01 03:18:51;;;;;;;1.63;1.53;;;;;;;14.22;63.66;99612.28;5075965;28;20366;-64
2021/12/01 03:21:16;;;;;;;1.60;1.50;;;;;;;14.20;63.47;99598.47;5075433;28;20455;-65
2021/12/01 03:23:43;;;;;;;2.00;1.60;;;;;;;14.18;63.59;99595.94;5075682;28;20032;-66
2021/12/01 03:26:09;;;;;;;1.45;1.40;;;;;;;14.21;63.63;99600.16;5075760;28;20024;-66
2021/12/01 03:28:35;;;;;;;1.60;1.50;;;;;;;14.17;63.71;99581.19;5075722;28;20047;-66
2021/12/01 03:31:01;;;;;;;2.40;1.63;;;;;;;14.20;63.59;99590.63;5075408;28;20033;-66
2021/12/01 03:33:27;;;;;;;1.83;1.60;;;;;;;14.19;63.64;99574.16;5075546;28;20081;-66
2021/12/01 03:35:53;;;;;;;2.08;1.70;;;;;;;14.20;63.47;99569.75;5074942;28;20028;-64
2021/12/01 03:38:21;;;;;;;1.97;1.43;;;;;;;14.17;63.24;99536.84;5075580;28;20073;-65
2021/12/01 03:40:47;;;;;;;1.42;1.33;;;;;;;14.19;63.36;99563.72;5075345;28;20040;-65
2021/12/01 03:43:13;;;;;;;1.70;1.60;;;;;;;14.20;63.50;99549.75;5075460;28;20082;-65
2021/12/01 03:45:38;;;;;;;3.10;1.60;;;;;;;14.20;63.54;99543.66;5075105;28;20070;-64
2021/12/01 03:48:04;;;;;;;1.60;1.50;;;;;;;14.16;63.54;99548.19;5075469;28;20028;-66
2021/12/01 03:50:30;;;;;;;1.50;1.40;;;;;;;14.17;63.42;99530.78;5074898;28;20033;-65
2021/12/01 03:52:56;;;;;;;2.20;1.80;;;;;;;14.18;63.48;99529.88;5075067;28;20107;-66
2021/12/01 03:55:22;;;;;;;1.70;1.58;;;;;;;14.15;63.51;99519.59;5075348;28;20032;-66
2021/12/01 03:57:47;;;;;;;1.67;1.57;;;;;;;14.17;63.55;99502.09;5075052;28;20025;-66
2021/12/01 04:00:15;;;;;;;1.67;1.57;;;;;;;14.15;63.58;99478.69;5075229;28;20078;-66
2021/12/01 04:02:41;;;;;;;1.85;1.60;;;;;;;14.19;63.34;99490.66;5075047;28;20375;-66
2021/12/01 04:05:07;;;;;;;1.70;1.60;;;;;;;14.17;63.57;99471.63;5074286;28;20056;-65
2021/12/01 04:07:33;;;;;;;1.90;1.52;;;;;;;14.20;63.57;99473.22;5074545;28;20029;-66
2021/12/01 04:09:58;;;;;;;1.73;1.63;;;;;;;14.16;63.42;99461.28;5074849;28;20123;-66
2021/12/01 04:12:25;;;;;;;1.67;1.57;;;;;;;14.19;63.60;99464.56;5075291;28;20024;-66
2021/12/01 04:14:50;;;;;;;2.15;1.67;;;;;;;14.19;63.49;99464.56;5074788;28;20051;-65
2021/12/01 04:17:15;;;;;;;1.40;1.30;;;;;;;14.16;63.56;99446.44;5074686;28;20463;-66
2021/12/01 04:19:41;;;;;;;1.73;1.20;;;;;;;14.16;63.37;99453.44;5074036;28;20111;-66
2021/12/01 04:22:06;;;;;;;4.00;1.53;;;;;;;14.19;63.54;99435.00;5074392;28;20483;-65
2021/12/01 04:24:32;;;;;;;2.50;1.60;;;;;;;14.16;63.59;99433.41;5073165;28;20060;-66
2021/12/01 04:26:57;;;;;;;2.83;1.60;;;;;;;14.15;63.60;99423.06;5074547;28;20036;-65
2021/12/01 04:29:24;;;;;;;1.70;1.60;;;;;;;14.16;63.97;99424.75;5074234;28;20395;-65
2021/12/01 04:31:50;;;;;;;4.90;1.70;;;;;;;14.16;63.63;99409.91;5072725;28;20071;-65
2021/12/01 04:34:16;;;;;;;1.60;1.37;;;;;;;14.15;63.38;99394.34;5074066;28;20064;-65
2021/12/01 04:36:43;;;;;;;2.63;1.60;;;;;;;14.16;63.66;99393.44;5074155;28;20029;-66
2021/12/01 04:39:11;;;;;;;;;;;;;;;14.25;63.32;99394.69;5074621;28;20067;-66
2021/12/01 04:41:39;;;;;;;2.30;1.60;;;;;;;14.18;63.43;99375.94;5074120;28;19917;-66
2021/12/01 04:44:10;;;;;;;2.95;1.58;;;;;;;14.16;63.45;99367.34;5073959;28;20029;-66
2021/12/01 04:46:43;;;;;;;2.33;1.50;;;;;;;14.16;63.44;99367.34;5074034;28;20028;-66
2021/12/01 04:49:10;;;;;;;2.63;1.80;;;;;;;14.10;63.49;99341.56;5073347;28;20078;-66
2021/12/01 04:51:36;;;;;;;1.65;1.50;;;;;;;14.14;63.42;99361.38;5073797;28;20576;-66
2021/12/01 04:54:03;;;;;;;1.70;1.60;;;;;;;14.14;63.50;99359.59;5074064;28;20242;-66
2021/12/01 04:56:28;;;;;;;2.58;1.80;;;;;;;14.12;63.63;99342.34;5072471;28;20024;-66
2021/12/01 04:58:54;;;;;;;2.30;1.50;;;;;;;14.16;63.49;99338.66;5073515;28;20527;-66
2021/12/01 05:01:19;;;;;;;2.13;1.60;;;;;;;14.11;63.49;99328.47;5073517;28;20089;-65
2021/12/01 05:03:45;;;;;;;2.53;1.50;;;;;;;14.09;63.49;99332.06;5073278;28;20076;-65
2021/12/01 05:06:12;;;;;;;2.90;1.50;;;;;;;14.13;63.38;99331.81;5073445;28;20048;-66
2021/12/01 05:08:39;;;;;;;2.88;1.70;;;;;;;14.11;63.40;99332.81;5073645;28;20590;-66
2021/12/01 05:11:05;;;;;;;8.07;1.70;;;;;;;14.13;63.28;99313.53;5073563;28;20029;-66
2021/12/01 05:13:30;;;;;;;1.93;1.70;;;;;;;14.14;63.42;99333.50;5073246;28;20025;-64
2021/12/01 05:15:56;;;;;;;2.17;1.40;;;;;;;14.13;63.41;99307.50;5073493;28;20481;-65
2021/12/01 05:18:21;;;;;;;1.93;1.67;;;;;;;14.11;63.07;99307.59;5072929;28;20047;-65
2021/12/01 05:20:46;;;;;;;1.50;1.40;;;;;;;14.10;63.48;99305.91;5073022;28;20105;-66
2021/12/01 05:23:15;;;;;;;4.00;1.60;;;;;;;14.10;63.57;99308.53;5073842;28;20096;-65
2021/12/01 05:25:44;;;;;;;2.17;1.45;;;;;;;14.13;63.30;99297.06;5073471;28;20028;-66
2021/12/01 05:28:10;;;;;;;1.73;1.50;;;;;;;14.12;63.33;99291.03;5072955;28;20107;-66
2021/12/01 05:30:36;;;;;;;1.80;1.70;;;;;;;14.10;63.27;99286.78;5073324;28;20106;-64
2021/12/01 05:33:06;;;;;;;1.70;1.60;;;;;;;14.13;63.07;99291.84;5072958;28;20475;-65
2021/12/01 05:35:33;;;;;;;1.80;1.52;;;;;;;14.11;63.34;99278.03;5073266;28;20497;-66
2021/12/01 05:37:58;;;;;;;;;;;;;;;14.19;63.18;99289.75;5073955;28;20115;-66
2021/12/01 05:40:23;;;;;;;2.43;1.50;;;;;;;14.11;63.48;99283.25;5073299;28;19947;-66
2021/12/01 05:42:49;;;;;;;1.40;1.30;;;;;;;14.09;63.29;99270.31;5073056;28;20036;-64
2021/12/01 05:45:15;;;;;;;2.57;1.40;;;;;;;14.10;63.35;99260.69;5072960;28;20441;-65
2021/12/01 05:47:40;;;;;;;1.57;1.37;;;;;;;14.11;63.26;99251.94;5072657;28;20031;-65
2021/12/01 05:50:06;;;;;;;2.33;1.63;;;;;;;14.12;63.44;99258.84;5073203;28;20093;-67
2021/12/01 05:52:32;;;;;;;1.83;1.50;;;;;;;14.11;63.33;99247.59;5072839;28;20376;-66
2021/12/01 05:54:57;;;;;;;1.30;1.20;;;;;;;14.13;63.23;99244.88;5073188;28;20029;-66
2021/12/01 05:57:22;;;;;;;1.77;1.30;;;;;;;14.10;63.20;99237.22;5072909;28;20025;-66
2021/12/01 05:59:48;;;;;;;2.80;1.40;;;;;;;14.09;63.63;99225.09;5073022;28;20037;-66
2021/12/01 06:02:13;;;;;;;1.60;1.13;;;;;;;14.11;63.33;99225.88;5071571;28;20113;-66
2021/12/01 06:04:39;;;;;;;1.97;1.33;;;;;;;14.13;63.09;99224.03;5072606;28;20144;-66
2021/12/01 06:07:04;;;;;;;2.03;1.03;;;;;;;14.10;63.33;99211.13;5073162;28;20028;-65
2021/12/01 06:09:30;;;;;;;2.43;1.50;;;;;;;14.12;63.45;99204.06;5073050;28;20059;-66
2021/12/01 06:11:56;;;;;;;1.35;1.25;;;;;;;14.08;63.33;99195.59;5072815;28;20029;-65
2021/12/01 06:14:21;;;;;;;1.03;1.00;;;;;;;14.08;63.42;99190.38;5072873;28;20383;-66
2021/12/01 06:16:47;;;;;;;1.00;1.00;;;;;;;14.07;63.19;99183.47;5072344;28;20033;-66
2021/12/01 06:19:12;;;;;;;1.93;1.13;;;;;;;14.12;63.38;99183.19;5072726;28;20342;-66
2021/12/01 06:21:38;;;;;;;1.20;1.20;;;;;;;14.09;63.36;99173.78;5072860;28;20082;-66
2021/12/01 06:24:03;;;;;;;3.50;1.27;;;;;;;14.09;63.32;99172.94;5071408;28;20447;-65
2021/12/01 06:26:29;;;;;;;2.13;1.10;;;;;;;14.12;63.15;99164.94;5090322;28;20103;-66
2021/12/01 06:28:54;;;;;;;1.10;1.10;;;;;;;14.08;63.12;99155.59;5090647;28;20059;-64
2021/12/01 06:31:20;;;;;;;1.63;1.30;;;;;;;14.11;63.17;99163.25;5088258;28;20063;-65
2021/12/01 06:33:45;;;;;;;1.27;1.13;;;;;;;14.08;63.07;99166.03;5090502;28;20379;-65
2021/12/01 06:36:10;;;;;;;7.33;1.53;;;;;;;14.04;63.02;99153.19;5090107;28;20031;-64
2021/12/01 06:38:38;;;;;;;2.23;1.00;;;;;;;14.09;63.21;99139.88;5090594;28;20039;-64
2021/12/01 06:41:04;;;;;;;1.05;1.02;;;;;;;14.07;63.13;99151.34;5089137;28;20115;-65
2021/12/01 06:43:29;;;;;;;2.33;1.20;;;;;;;14.11;63.28;99142.38;5088713;28;20157;-64
2021/12/01 06:45:55;;;;;;;1.20;1.10;;;;;;;14.07;63.23;99140.91;5090433;28;20043;-66
2021/12/01 06:48:20;;;;;;;1.67;1.00;;;;;;;14.10;63.13;99136.34;5091895;28;20137;-64
2021/12/01 06:50:45;;;;;;;1.50;1.40;;;;;;;14.06;63.07;99129.63;5090722;28;20625;-63
2021/12/01 06:53:11;;;;;;;3.10;1.00;;;;;;;14.09;63.20;99133.81;5080344;28;20032;-66
2021/12/01 06:55:36;;;;;;;6.27;1.50;;;;;;;14.08;63.58;99134.72;5075142;28;20035;-66
2021/12/01 06:58:02;;;;;;;7.10;1.27;;;;;;;14.08;63.30;99122.53;5082533;28;20025;-64
2021/12/01 07:00:27;;;;;;;5.27;1.30;;;;;;;14.08;63.34;99116.47;5079616;28;20109;-66
2021/12/01 07:02:52;;;;;;;2.23;1.10;;;;;;;14.07;63.39;99123.47;5078163;28;20037;-66
2021/12/01 07:05:18;;;;;;;5.33;1.30;;;;;;;14.07;63.16;99113.03;5071788;28;20060;-65
2021/12/01 07:07:44;;;;;;;6.37;1.13;;;;;;;14.09;63.42;99123.38;5070602;28;20613;-67
2021/12/01 07:10:12;;;;;;;6.70;1.33;;;;;;;14.08;63.44;99106.91;5045690;28;20087;-66
2021/12/01 07:12:39;;;;;;;5.50;1.25;;;;;;;14.05;63.41;99109.66;5084340;28;20042;-65
2021/12/01 07:15:06;;;;;;;4.95;1.25;;;;;;;14.07;63.73;99104.38;5064920;28;20039;-65
2021/12/01 07:17:31;;;;;;;1.85;1.38;;;;;;;14.11;63.33;99117.16;5087107;28;20051;-61
2021/12/01 07:19:57;;;;;;;4.07;1.00;;;;;;;14.05;63.44;99100.09;5088324;28;20032;-64
2021/12/01 07:22:22;;;;;;;2.10;0.90;;;;;;;14.08;63.57;99095.59;5085153;28;20304;-65
2021/12/01 07:24:48;;;;;;;4.47;1.03;;;;;;;14.13;63.34;99111.84;5085594;28;20076;-65
2021/12/01 07:27:15;;;;;;;3.87;1.10;;;;;;;14.15;63.23;99112.59;5085674;28;20724;-64
2021/12/01 07:29:42;;;;;;;4.32;1.05;;;;;;;14.14;63.31;99118.75;5086258;28;20390;-64
2021/12/01 07:32:08;;;;;;;3.45;1.33;;;;;;;14.14;63.38;99103.09;5082851;28;20474;-65
2021/12/01 07:34:41;;;;;;;1.97;1.00;;;;;;;14.12;63.47;99100.59;5086147;28;20031;-62
2021/12/01 07:37:06;;;;;;;2.15;0.90;;;;;;;14.21;63.32;99107.00;5082738;28;20150;-65
2021/12/01 07:39:31;;;;;;;2.07;0.83;;;;;;;14.18;63.29;99091.56;5083761;28;20031;-63
2021/12/01 07:41:57;;;;;;;1.90;1.27;;;;;;;14.21;63.16;99096.56;5084202;28;20536;-64
2021/12/01 07:44:22;;;;;;;2.63;0.97;;;;;;;14.23;63.23;99099.13;5086145;28;20051;-64
2021/12/01 07:46:48;;;;;;;1.53;1.00;;;;;;;14.24;63.15;99085.16;5084916;28;20115;-64
2021/12/01 07:49:14;;;;;;;2.30;0.85;;;;;;;14.24;63.06;99085.97;5085202;28;20047;-64
2021/12/01 07:51:39;;;;;;;3.53;1.10;;;;;;;14.23;62.97;99080.84;5085225;28;20030;-64
2021/12/01 07:54:04;;;;;;;3.53;1.03;;;;;;;14.21;63.17;99067.88;5084224;28;20051;-64
2021/12/01 07:56:30;;;;;;;0.90;0.90;;;;;;;14.22;62.95;99069.56;5081164;28;20059;-61
2021/12/01 07:58:55;;;;;;;2.60;0.80;;;;;;;14.20;63.23;99055.75;5084145;28;20545;-65
2021/12/01 08:01:20;;;;;;;2.40;0.90;;;;;;;14.26;63.02;99055.41;5083765;28;20118;-64
2021/12/01 08:03:46;;;;;;;0.70;0.70;;;;;;;14.28;63.16;99068.34;5085451;28;20058;-62
2021/12/01 08:06:11;;;;;;;1.00;0.90;;;;;;;14.24;62.98;99072.94;5084674;28;20361;-63
2021/12/01 08:08:36;;;;;;;3.57;1.00;;;;;;;14.27;63.10;99059.72;5084277;28;20304;-65
2021/12/01 08:11:02;;;;;;;2.43;0.90;;;;;;;14.22;62.83;99056.50;5073644;28;20044;-62
2021/12/01 08:13:27;;;;;;;1.00;0.93;;;;;;;14.23;63.06;99052.97;5084530;28;20636;-65
2021/12/01 08:15:53;;;;;;;1.20;1.10;;;;;;;14.27;63.20;99062.31;5085632;28;20032;-64
2021/12/01 08:18:18;;;;;;;1.70;0.83;;;;;;;14.25;63.39;99053.72;5079151;28;20032;-63
2021/12/01 08:20:44;;;;;;;0.97;0.77;;;;;;;14.22;63.12;99040.84;5084742;28;20517;-65
2021/12/01 08:23:10;;;;;;;1.02;0.82;;;;;;;14.20;63.31;99034.88;5075100;28;20028;-64
2021/12/01 08:25:35;;;;;;;2.27;0.87;;;;;;;14.29;62.98;99057.00;5086384;28;20064;-64
2021/12/01 08:28:02;;;;;;;1.37;0.83;;;;;;;14.28;62.96;99063.13;5087460;28;20036;-66
2021/12/01 08:30:28;;;;;;;2.45;1.00;;;;;;;14.25;62.91;99051.13;5086383;28;20028;-67
2021/12/01 08:32:54;;;;;;;8.85;1.40;;;;;;;14.28;62.99;99043.13;5069190;28;20483;-64
2021/12/01 08:35:20;;;;;;;4.23;1.33;;;;;;;14.20;63.01;99033.13;5073699;28;20085;-66
2021/12/01 08:37:46;;;;;;;3.77;1.57;;;;;;;14.18;63.04;99039.38;5081140;28;20028;-68
2021/12/01 08:40:14;;;;;;;3.83;1.67;;;;;;;14.14;63.27;99048.31;5083010;28;20067;-63
2021/12/01 08:42:40;;;;;;;4.28;1.50;;;;;;;14.12;63.31;99047.56;5088354;28;20127;-67
2021/12/01 08:45:06;;;;;;;3.35;1.60;;;;;;;14.07;63.43;99020.91;5088084;28;20081;-68
2021/12/01 08:47:31;;;;;;;2.20;1.58;;;;;;;14.11;63.15;99027.63;5078666;28;20036;-62
2021/12/01 08:49:57;;;;;;;3.57;1.37;;;;;;;14.10;63.22;99025.94;5079671;28;20063;-67
2021/12/01 08:52:24;;;;;;;3.80;1.50;;;;;;;14.08;63.41;99026.03;5082725;28;20028;-67
2021/12/01 08:54:49;;;;;;;2.00;1.50;;;;;;;14.08;63.28;99019.97;5078566;28;20024;-63
2021/12/01 08:57:15;;;;;;;3.97;1.63;;;;;;;14.03;63.32;99017.63;5086195;28;20472;-66
2021/12/01 08:59:40;;;;;;;3.83;1.57;;;;;;;14.09;63.37;99034.69;5070569;28;20028;-67
2021/12/01 09:02:06;;;;;;;2.57;1.60;;;;;;;14.09;63.64;99025.09;5077675;28;20039;-62
2021/12/01 09:04:31;;;;;;;2.93;1.33;;;;;;;14.08;63.46;99019.97;5088047;28;20056;-66
2021/12/01 09:06:57;;;;;;;2.93;1.40;;;;;;;14.11;63.35;99023.25;5088105;28;20370;-66
2021/12/01 09:09:22;;;;;;;5.67;1.60;;;;;;;14.14;63.34;99028.25;5069027;28;20078;-62
2021/12/01 09:11:51;;;;;;;1.47;1.30;;;;;;;14.12;63.53;99034.50;5080901;28;20081;-65
2021/12/01 09:14:17;;;;;;;4.30;1.50;;;;;;;14.15;63.56;99032.56;5078114;28;20135;-66
2021/12/01 09:16:44;;;;;;;1.85;1.23;;;;;;;14.17;63.19;99027.25;5077052;28;20024;-61
2021/12/01 09:19:09;;;;;;;4.07;1.50;;;;;;;14.14;63.43;99022.22;5075863;28;20535;-66
2021/12/01 09:21:35;;;;;;;3.53;1.47;;;;;;;14.10;63.55;99025.94;5080680;28;20064;-67
2021/12/01 09:24:02;;;;;;;3.07;1.60;;;;;;;14.11;63.32;99030.22;5079711;28;20397;-63
2021/12/01 09:26:27;;;;;;;1.58;1.45;;;;;;;14.10;63.31;99034.63;5071200;28;20115;-66
2021/12/01 09:28:53;;;;;;;3.53;1.40;;;;;;;14.11;63.17;99028.47;5071396;28;20070;-67
2021/12/01 09:31:18;;;;;;;7.13;1.70;;;;;;;14.11;63.08;99019.78;5068642;28;20028;-65
2021/12/01 09:33:44;;;;;;;5.67;2.07;;;;;;;14.08;63.20;99033.84;5071214;28;20036;-67
2021/12/01 09:36:09;;;;;;;3.13;1.60;;;;;;;14.04;63.17;99038.41;5071053;28;20103;-67
2021/12/01 09:38:35;;;;;;;5.93;1.70;;;;;;;14.08;63.23;99049.50;5074940;28;20039;-64
2021/12/01 09:41:00;;;;;;;2.53;1.50;;;;;;;14.05;63.33;99047.06;5080657;28;20268;-65
2021/12/01 09:43:29;;;;;;;2.93;1.63;;;;;;;14.09;63.31;99066.84;5074515;28;20024;-68
2021/12/01 09:45:56;;;;;;;5.60;1.70;;;;;;;14.09;63.21;99055.56;5076003;28;20035;-65
2021/12/01 09:48:23;;;;;;;2.65;1.55;;;;;;;14.05;63.08;99060.97;5077800;28;20103;-65
2021/12/01 09:50:49;;;;;;;2.58;1.48;;;;;;;14.07;63.38;99067.88;5077106;28;20066;-68
2021/12/01 09:53:14;;;;;;;5.17;1.70;;;;;;;14.10;63.23;99068.53;5075936;28;20064;-67
2021/12/01 09:55:41;;;;;;;1.97;1.57;;;;;;;14.05;63.21;99060.97;5085363;28;20027;-65
2021/12/01 09:58:13;;;;;;;2.20;1.52;;;;;;;14.15;63.51;99076.09;5087077;28;20446;-68
2021/12/01 10:00:43;;;;;;;2.50;1.60;;;;;;;14.15;63.31;99070.84;5087176;28;20474;-68
2021/12/01 10:03:10;;;;;;;3.38;1.45;;;;;;;14.19;63.43;99069.72;5086047;28;20032;-66
2021/12/01 10:05:52;;;;;;;1.42;1.30;;;;;;;14.23;63.43;99057.38;5083274;28;20491;-65
2021/12/01 10:08:24;;;;;;;2.47;1.40;;;;;;;14.21;63.50;99050.47;5076191;28;20021;-65
2021/12/01 10:10:51;;;;;;;3.45;1.20;;;;;;;14.16;63.27;99038.63;5056468;28;20494;-64
2021/12/01 10:13:29;;;;;;;4.47;1.50;;;;;;;14.20;63.51;99046.19;5067260;28;20480;-66
2021/12/01 10:15:57;;;;;;;4.18;1.48;;;;;;;14.28;63.25;99057.91;5075418;28;20054;-68
2021/12/01 10:18:24;;;;;;;5.18;1.50;;;;;;;14.26;63.33;99059.78;5075727;28;20535;-68
2021/12/01 10:21:04;;;;;;;5.70;1.95;;;;;;;14.20;62.36;99059.22;5083095;28;20044;-65
2021/12/01 10:23:29;;;;;;;7.05;1.75;;;;;;;14.10;61.25;99075.50;5086462;28;20031;-65
2021/12/01 10:25:56;;;;;;;11.40;2.20;;;;;;;14.01;61.00;99064.69;5085732;28;20035;-64
2021/12/01 10:28:36;;;;;;;8.32;1.75;;;;;;;13.96;61.77;99056.25;5086783;28;20073;-67
2021/12/01 10:31:02;;;;;;;9.57;1.83;;;;;;;13.88;61.50;99061.09;5066869;28;20067;-67
2021/12/01 10:33:29;;;;;;;8.68;2.13;;;;;;;13.88;61.72;99059.34;5065853;28;20194;-65
2021/12/01 10:35:56;;;;;;;;;;;;;;;14.00;62.10;99065.59;5064495;28;20453;-63
2021/12/01 10:38:27;;;;;;;9.63;2.05;;;;;;;13.97;62.36;99055.34;5076675;28;19959;-67
2021/12/01 10:41:08;;;;;;;7.07;1.80;;;;;;;14.04;62.48;99059.28;5087219;28;20446;-66
2021/12/01 10:43:35;;;;;;;9.52;1.65;;;;;;;14.09;62.37;99051.19;5070391;28;20494;-65
2021/12/01 10:46:07;;;;;;;5.97;1.45;;;;;;;14.15;62.22;99053.44;5080212;28;20454;-66
2021/12/01 10:48:33;;;;;;;8.60;1.65;;;;;;;14.22;62.45;99056.50;5088286;28;20036;-66
2021/12/01 10:50:58;;;;;;;4.25;1.45;;;;;;;14.20;62.12;99040.09;5085607;28;20527;-64
2021/12/01 10:53:25;;;;;;;7.67;1.80;;;;;;;14.29;62.43;99047.41;5074216;28;20043;-66
2021/12/01 10:56:00;;;;;;;5.78;1.58;;;;;;;14.34;62.75;99044.53;5086352;28;20121;-68
2021/12/01 10:58:51;;;;;;;7.68;1.75;;;;;;;14.41;62.48;99042.41;5090338;28;20055;-66
2021/12/01 11:01:21;;;;;;;5.80;1.58;;;;;;;14.34;62.66;99047.13;5087466;28;20044;-67
2021/12/01 11:03:47;;;;;;;8.48;1.52;;;;;;;14.42;62.59;99055.34;5088764;28;20510;-67
2021/12/01 11:06:22;;;;;;;4.53;1.38;;;;;;;14.43;62.57;99050.94;5088896;28;20028;-67
2021/12/01 11:08:55;;;;;;;5.65;1.52;;;;;;;14.44;62.65;99060.44;5089301;28;20027;-68
2021/12/01 11:11:22;;;;;;;3.97;1.35;;;;;;;14.46;62.69;99062.06;5070804;28;20040;-66
2021/12/01 11:13:48;;;;;;;5.05;1.30;;;;;;;14.47;62.57;99058.50;5090535;28;20043;-66
2021/12/01 11:16:17;;;;;;;4.70;1.33;;;;;;;14.50;62.53;99067.94;5088626;28;20122;-68
2021/12/01 11:18:49;;;;;;;3.83;1.33;;;;;;;14.48;62.54;99062.78;5090123;28;20081;-68
2021/12/01 11:21:22;;;;;;;2.55;1.10;;;;;;;14.47;62.56;99063.72;5087593;28;20036;-67
2021/12/01 11:23:47;;;;;;;5.22;1.70;;;;;;;14.50;62.58;99067.94;5069951;28;20047;-63
2021/12/01 11:26:14;;;;;;;6.47;1.37;;;;;;;14.52;62.41;99073.91;5072315;28;20028;-66
2021/12/01 11:28:44;;;;;;;2.72;1.23;;;;;;;14.48;62.72;99064.56;5089558;28;20035;-67
2021/12/01 11:31:17;;;;;;;5.38;1.55;;;;;;;14.51;62.68;99061.78;5090224;28;20112;-64
2021/12/01 11:33:46;;;;;;;4.93;1.20;;;;;;;14.52;62.60;99066.06;5090001;28;20031;-64
2021/12/01 11:36:15;;;;;;;3.65;1.10;;;;;;;14.50;62.57;99060.94;5089741;28;20494;-66
2021/12/01 11:38:42;;;;;;;3.72;1.35;;;;;;;14.54;62.64;99061.56;5083449;28;20092;-65